Buoy 52594

sailwx.info

Track history (hours):
 
Tides and Currents Weather Stations Pressure Air Temp Water Temp Dewpoint Dewpoint Depression Visibility Wind Speed Wind Dir Waves Ship Positions

Drifting buoy 52594

Last reported at 2017-Nov-23 16:00 UTC. Time now 2017-Nov-23 16:50 UTC.
Position N 34°00' W 143°29'.

Water temperature 19.5 ° C

Date/timePositionNaut miles runAvg speedWind from/ knotsBaromVisibWave heightAir tempDewpointWater temp
2017-Nov-23 16:00N 34°00' W 143°29'1 0.4 19.5
2017-Nov-23 14:00N 34°01' W 143°28'1 1.2 19.5
2017-Nov-23 13:00N 34°01' W 143°29'0 0.0 19.5
2017-Nov-23 08:00N 34°01' W 143°29'1 1.2 19.5
2017-Nov-23 07:00N 34°02' W 143°28'1 0.8 19.5
2017-Nov-23 06:00N 34°01' W 143°29'1 0.8 19.5
2017-Nov-23 05:00N 34°02' W 143°29'0 0.0 19.5
2017-Nov-23 04:00N 34°02' W 143°29'0 0.5 19.5
2017-Nov-23 03:00N 34°02' W 143°29'0 0.0 19.6
2017-Nov-23 02:00N 34°02' W 143°29'1 0.8 19.6
2017-Nov-23 01:00N 34°02' W 143°28'0 0.0 19.6
2017-Nov-23 00:00N 34°02' W 143°28'0 0.0 19.6
2017-Nov-22 23:00N 34°02' W 143°28'2 2.1 19.6
2017-Nov-22 22:00N 34°04' W 143°27'1 0.4 19.6
2017-Nov-22 20:00N 34°05' W 143°28'1 0.6 19.6
2017-Nov-22 19:00N 34°05' W 143°28'1 0.8 20.6
2017-Nov-22 18:00N 34°06' W 143°27'2 1.6 19.6
2017-Nov-22 17:00N 34°07' W 143°29'1 0.8 19.6
2017-Nov-22 16:00N 34°07' W 143°29'2 0.7 19.6
2017-Nov-22 13:00N 34°08' W 143°32'4 3.5 19.6
2017-Nov-22 12:00N 34°07' W 143°36'4 3.5 19.7
2017-Nov-22 11:00N 34°08' W 143°32'3 0.8 19.7
2017-Nov-22 07:00N 34°07' W 143°35'1 1.0 19.8
2017-Nov-22 06:00N 34°07' W 143°37'0 0.5 19.8
2017-Nov-22 05:00N 34°07' W 143°37'0 0.5 19.8
2017-Nov-22 04:00N 34°07' W 143°37'1 1.0 19.8
2017-Nov-22 03:00N 34°07' W 143°38'1 0.6 19.8
2017-Nov-22 02:00N 34°08' W 143°38'0 0.0 19.8
2017-Nov-22 01:00N 34°08' W 143°38'1 0.6 19.8
2017-Nov-21 23:00N 34°08' W 143°39'2 1.0 19.9
2017-Nov-21 21:00N 34°09' W 143°41'1 0.3 19.8
2017-Nov-21 19:00N 34°10' W 143°41'1 1.2 19.8
2017-Nov-21 18:00N 34°09' W 143°43'1 0.8 19.8
2017-Nov-21 17:00N 34°10' W 143°43'1 0.8 19.9
2017-Nov-21 16:00N 34°09' W 143°44'1 0.8 19.9
2017-Nov-21 15:00N 34°10' W 143°44'1 1.0 19.9
2017-Nov-21 14:00N 34°10' W 143°46'0 0.0 19.9
2017-Nov-21 13:00N 34°10' W 143°46'0 0.0 19.9
2017-Nov-21 12:00N 34°10' W 143°46'0 0.0 19.9
2017-Nov-21 11:00N 34°10' W 143°46'2 0.5 19.9
2017-Nov-21 07:00N 34°11' W 143°47'0 0.0 19.9
2017-Nov-21 06:00N 34°11' W 143°47'0 0.0 19.9
2017-Nov-21 05:00N 34°11' W 143°47'1 0.8 20.0
2017-Nov-21 04:00N 34°11' W 143°47'1 0.8 20.1
2017-Nov-21 03:00N 34°12' W 143°47'0 0.0 20.1
2017-Nov-21 02:00N 34°12' W 143°47'1 0.6 20.1
2017-Nov-21 01:00N 34°13' W 143°47'1 0.6 20.1
2017-Nov-21 00:00N 34°12' W 143°47'0 0.0 20.1
2017-Nov-20 23:00N 34°12' W 143°47'2 0.6 20.1
2017-Nov-20 19:00N 34°11' W 143°50'1 0.6 20.2
2017-Nov-20 17:00N 34°10' W 143°51'1 1.3 20.1
2017-Nov-20 16:00N 34°09' W 143°50'0 0.0 20.1
2017-Nov-20 15:00N 34°09' W 143°50'2 1.8 20.1
2017-Nov-20 14:00N 34°07' W 143°50'0 0.0 20.1
2017-Nov-20 13:00N 34°07' W 143°50'2 1.9 20.1
2017-Nov-20 12:00N 34°05' W 143°50'0 0.0 20.1
2017-Nov-20 08:00N 34°05' W 143°50'0 0.0 20.1
2017-Nov-20 07:00N 34°05' W 143°50'0 0.5 20.1
2017-Nov-20 06:00N 34°05' W 143°49'0 0.5 20.1
2017-Nov-20 05:00N 34°05' W 143°49'0 0.5 20.1
2017-Nov-20 04:00N 34°05' W 143°49'1 0.8 20.1
2017-Nov-20 03:00N 34°05' W 143°49'0 0.5 20.1
2017-Nov-20 02:00N 34°05' W 143°49'0 0.0 20.1
2017-Nov-20 01:00N 34°05' W 143°49'0 0.0 20.1
2017-Nov-20 00:00N 34°05' W 143°49'0 0.0 20.1
2017-Nov-19 23:00N 34°05' W 143°49'2 0.6 20.1
2017-Nov-19 20:00N 34°03' W 143°49'1 1.2 20.1
2017-Nov-19 19:00N 34°02' W 143°48'1 0.6 20.1
2017-Nov-19 18:00N 34°02' W 143°48'1 0.6 20.1
2017-Nov-19 17:00N 34°01' W 143°48'1 0.8 20.1
2017-Nov-19 16:00N 34°01' W 143°47'0 0.0 20.0
2017-Nov-19 15:00N 34°01' W 143°47'1 0.8 20.0
2017-Nov-19 14:00N 34°00' W 143°47'0 0.5 20.0
2017-Nov-19 13:00N 34°00' W 143°47'1 1.3 20.0
2017-Nov-19 12:00N 33°59' W 143°47'0 0.0 20.0
2017-Nov-19 07:00N 33°59' W 143°47'0 0.5 20.0
2017-Nov-19 06:00N 33°59' W 143°46'0 0.0 20.0
2017-Nov-19 05:00N 33°59' W 143°46'1 0.8 20.0
2017-Nov-19 04:00N 33°58' W 143°46'0 0.0 20.0
2017-Nov-19 03:00N 33°58' W 143°46'0 0.0 20.0
2017-Nov-19 02:00N 33°58' W 143°46'1 0.8 20.0
2017-Nov-19 01:00N 33°58' W 143°46'0 0.0 20.1
2017-Nov-19 00:00N 33°58' W 143°46'0 0.0 20.1
2017-Nov-18 23:00N 33°58' W 143°46'4 1.4 20.0
2017-Nov-18 20:00N 33°53' W 143°47'2 0.8 20.0
2017-Nov-18 18:00N 33°52' W 143°46'1 0.6 20.0
2017-Nov-18 17:00N 33°52' W 143°46'1 1.5 20.1
2017-Nov-18 16:00N 33°52' W 143°44'1 1.3 20.1
2017-Nov-18 15:00N 33°50' W 143°44'0 0.5 20.1
2017-Nov-18 14:00N 33°50' W 143°44'1 0.8 20.2
2017-Nov-18 13:00N 33°50' W 143°43'3 2.8 20.2
2017-Nov-18 12:00N 33°47' W 143°41'0 0.0 20.2
2017-Nov-18 08:00N 33°47' W 143°41'0 0.5 20.2
2017-Nov-18 07:00N 33°47' W 143°41'0 0.5 20.2
2017-Nov-18 06:00N 33°47' W 143°41'0 0.0 20.2
2017-Nov-18 05:00N 33°47' W 143°41'1 0.8 20.2
2017-Nov-18 04:00N 33°47' W 143°42'1 0.6 20.2
2017-Nov-18 03:00N 33°46' W 143°42'1 0.8 20.2
2017-Nov-18 02:00N 33°46' W 143°43'1 1.3 20.2
2017-Nov-18 01:00N 33°44' W 143°43'0 0.0 20.3
2017-Nov-18 00:00N 33°44' W 143°43'2 2.5 20.3
2017-Nov-17 23:00N 33°42' W 143°43'0 0.0 20.2
2017-Nov-17 20:00N 33°42' W 143°43'1 1.2 20.2
2017-Nov-17 19:00N 33°41' W 143°41'0 0.5 20.2
2017-Nov-17 18:00N 33°41' W 143°41'1 0.6 20.1
2017-Nov-17 17:00N 33°41' W 143°41'0 0.0 20.1
2017-Nov-17 16:00N 33°41' W 143°41'0 0.0 20.1
2017-Nov-17 15:00N 33°41' W 143°41'1 0.6 20.1
2017-Nov-17 14:00N 33°40' W 143°41'1 1.3 20.1
2017-Nov-17 13:00N 33°39' W 143°41'0 0.0 20.1
2017-Nov-17 12:00N 33°39' W 143°41'0 0.1 20.1
2017-Nov-17 07:00N 33°39' W 143°41'0 0.5 20.1
2017-Nov-17 06:00N 33°39' W 143°41'0 0.0 20.2
2017-Nov-17 05:00N 33°39' W 143°41'1 0.6 20.2
2017-Nov-17 04:00N 33°40' W 143°41'1 0.6 20.2
2017-Nov-17 02:00N 33°39' W 143°43'2 0.8 20.2
2017-Nov-17 00:00N 33°40' W 143°41'0 0.2 20.2
2017-Nov-16 21:00N 33°40' W 143°40'1 0.4 20.2
2017-Nov-16 19:00N 33°40' W 143°40'0 0.0 20.2
2017-Nov-16 18:00N 33°40' W 143°40'1 1.3 20.2
2017-Nov-16 17:00N 33°41' W 143°39'0 0.5 20.2
2017-Nov-16 16:00N 33°41' W 143°38'1 0.8 20.2
2017-Nov-16 15:00N 33°42' W 143°39'1 0.8 20.2
2017-Nov-16 14:00N 33°43' W 143°38'2 1.6 20.2
2017-Nov-16 13:00N 33°44' W 143°40'1 1.3 20.2
2017-Nov-16 12:00N 33°43' W 143°39'2 0.4 20.3
2017-Nov-16 07:00N 33°44' W 143°39'1 0.8 20.2
2017-Nov-16 06:00N 33°45' W 143°38'1 0.8 20.2
2017-Nov-16 05:00N 33°46' W 143°38'0 0.0 20.2
2017-Nov-16 04:00N 33°46' W 143°38'1 0.8 20.2
2017-Nov-16 03:00N 33°45' W 143°37'0 0.0 20.2
2017-Nov-16 02:00N 33°45' W 143°37'2 1.6 20.2
2017-Nov-16 01:00N 33°46' W 143°36'1 1.0 20.2
2017-Nov-16 00:00N 33°46' W 143°35'0 0.0 20.2
2017-Nov-15 23:00N 33°46' W 143°35'0 0.0 20.1
2017-Nov-15 22:00N 33°46' W 143°35'4 1.4 20.1
2017-Nov-15 19:00N 33°50' W 143°32'1 1.3 20.2
2017-Nov-15 18:00N 33°51' W 143°32'0 0.0 20.2
2017-Nov-15 17:00N 33°51' W 143°32'0 0.0 20.2
2017-Nov-15 16:00N 33°51' W 143°32'1 1.3 20.2
2017-Nov-15 15:00N 33°52' W 143°31'1 0.6 20.2
2017-Nov-15 13:00N 33°53' W 143°32'1 0.2 20.3
2017-Nov-15 07:00N 33°54' W 143°32'0 0.5 20.2
2017-Nov-15 06:00N 33°54' W 143°31'1 0.6 20.2
2017-Nov-15 05:00N 33°55' W 143°31'0 0.5 20.2
2017-Nov-15 04:00N 33°55' W 143°31'1 1.2 20.2
2017-Nov-15 03:00N 33°54' W 143°29'0 0.0 20.2
2017-Nov-15 02:00N 33°54' W 143°29'1 1.2 20.3
2017-Nov-15 01:00N 33°55' W 143°28'2 1.6 20.3
2017-Nov-15 00:00N 33°56' W 143°27'0 0.0 20.3
2017-Nov-14 23:00N 33°56' W 143°27'0 0.0 20.3
2017-Nov-14 22:00N 33°56' W 143°27'4 1.9 20.3
2017-Nov-14 20:00N 33°58' W 143°23'2 1.2 20.3
2017-Nov-14 18:00N 34°01' W 143°23'0 0.0 20.4
2017-Nov-14 17:00N 34°01' W 143°23'0 0.0 20.4
2017-Nov-14 16:00N 34°01' W 143°23'2 0.8 20.4
2017-Nov-14 14:00N 34°01' W 143°21'0 0.5 20.4
2017-Nov-14 13:00N 34°01' W 143°20'0 0.0 20.4
2017-Nov-14 12:00N 34°01' W 143°20'0 0.0 20.4
2017-Nov-14 11:00N 34°01' W 143°20'1 0.2 20.4
2017-Nov-14 07:00N 34°01' W 143°19'1 1.2 20.4
2017-Nov-14 06:00N 34°02' W 143°18'2 1.6 20.4
2017-Nov-14 05:00N 34°01' W 143°16'1 0.6 20.4
2017-Nov-14 04:00N 34°02' W 143°16'1 1.0 20.4
2017-Nov-14 03:00N 34°02' W 143°15'1 1.2 20.4
2017-Nov-14 02:00N 34°02' W 143°14'0 0.0 20.5
2017-Nov-14 01:00N 34°02' W 143°14'2 1.6 20.5
2017-Nov-14 00:00N 34°04' W 143°13'0 0.0 20.5
2017-Nov-13 23:00N 34°04' W 143°13'0 0.0 20.5
2017-Nov-13 22:00N 34°04' W 143°13'2 1.0 20.6
2017-Nov-13 20:00N 34°05' W 143°11'0 0.0 20.5
2017-Nov-13 18:00N 34°05' W 143°11'0 0.0 20.5
2017-Nov-13 17:00N 34°05' W 143°11'1 0.6 20.5
2017-Nov-13 16:00N 34°06' W 143°11'   20.5
Track history (hours):
 
Tides and Currents Weather Stations Pressure Air Temp Water Temp Dewpoint Dewpoint Depression Visibility Wind Speed Wind Dir Waves Ship Positions

Drifting buoy 52594

Last reported at 2017-Nov-23 16:00 UTC. Time now 2017-Nov-23 16:50 UTC.
Position N 34°00' W 143°29'.

Water temperature 19.5 ° C

Date/timePositionNaut miles runAvg speedWind from/ knotsBaromVisibWave heightAir tempDewpointWater temp
2017-Nov-23 16:00N 34°00' W 143°29'1 0.4 19.5
2017-Nov-23 14:00N 34°01' W 143°28'1 1.2 19.5
2017-Nov-23 13:00N 34°01' W 143°29'0 0.0 19.5
2017-Nov-23 08:00N 34°01' W 143°29'1 1.2 19.5
2017-Nov-23 07:00N 34°02' W 143°28'1 0.8 19.5
2017-Nov-23 06:00N 34°01' W 143°29'1 0.8 19.5
2017-Nov-23 05:00N 34°02' W 143°29'0 0.0 19.5
2017-Nov-23 04:00N 34°02' W 143°29'0 0.5 19.5
2017-Nov-23 03:00N 34°02' W 143°29'0 0.0 19.6
2017-Nov-23 02:00N 34°02' W 143°29'1 0.8 19.6
2017-Nov-23 01:00N 34°02' W 143°28'0 0.0 19.6
2017-Nov-23 00:00N 34°02' W 143°28'0 0.0 19.6
2017-Nov-22 23:00N 34°02' W 143°28'2 2.1 19.6
2017-Nov-22 22:00N 34°04' W 143°27'1 0.4 19.6
2017-Nov-22 20:00N 34°05' W 143°28'1 0.6 19.6
2017-Nov-22 19:00N 34°05' W 143°28'1 0.8 20.6
2017-Nov-22 18:00N 34°06' W 143°27'2 1.6 19.6
2017-Nov-22 17:00N 34°07' W 143°29'1 0.8 19.6
2017-Nov-22 16:00N 34°07' W 143°29'2 0.7 19.6
2017-Nov-22 13:00N 34°08' W 143°32'4 3.5 19.6
2017-Nov-22 12:00N 34°07' W 143°36'4 3.5 19.7
2017-Nov-22 11:00N 34°08' W 143°32'3 0.8 19.7
2017-Nov-22 07:00N 34°07' W 143°35'1 1.0 19.8
2017-Nov-22 06:00N 34°07' W 143°37'0 0.5 19.8
2017-Nov-22 05:00N 34°07' W 143°37'0 0.5 19.8
2017-Nov-22 04:00N 34°07' W 143°37'1 1.0 19.8
2017-Nov-22 03:00N 34°07' W 143°38'1 0.6 19.8
2017-Nov-22 02:00N 34°08' W 143°38'0 0.0 19.8
2017-Nov-22 01:00N 34°08' W 143°38'1 0.6 19.8
2017-Nov-21 23:00N 34°08' W 143°39'2 1.0 19.9
2017-Nov-21 21:00N 34°09' W 143°41'1 0.3 19.8
2017-Nov-21 19:00N 34°10' W 143°41'1 1.2 19.8
2017-Nov-21 18:00N 34°09' W 143°43'1 0.8 19.8
2017-Nov-21 17:00N 34°10' W 143°43'1 0.8 19.9
2017-Nov-21 16:00N 34°09' W 143°44'1 0.8 19.9
2017-Nov-21 15:00N 34°10' W 143°44'1 1.0 19.9
2017-Nov-21 14:00N 34°10' W 143°46'0 0.0 19.9
2017-Nov-21 13:00N 34°10' W 143°46'0 0.0 19.9
2017-Nov-21 12:00N 34°10' W 143°46'0 0.0 19.9
2017-Nov-21 11:00N 34°10' W 143°46'2 0.5 19.9
2017-Nov-21 07:00N 34°11' W 143°47'0 0.0 19.9
2017-Nov-21 06:00N 34°11' W 143°47'0 0.0 19.9
2017-Nov-21 05:00N 34°11' W 143°47'1 0.8 20.0
2017-Nov-21 04:00N 34°11' W 143°47'1 0.8 20.1
2017-Nov-21 03:00N 34°12' W 143°47'0 0.0 20.1
2017-Nov-21 02:00N 34°12' W 143°47'1 0.6 20.1
2017-Nov-21 01:00N 34°13' W 143°47'1 0.6 20.1
2017-Nov-21 00:00N 34°12' W 143°47'0 0.0 20.1
2017-Nov-20 23:00N 34°12' W 143°47'2 0.6 20.1
2017-Nov-20 19:00N 34°11' W 143°50'1 0.6 20.2
2017-Nov-20 17:00N 34°10' W 143°51'1 1.3 20.1
2017-Nov-20 16:00N 34°09' W 143°50'0 0.0 20.1
2017-Nov-20 15:00N 34°09' W 143°50'2 1.8 20.1
2017-Nov-20 14:00N 34°07' W 143°50'0 0.0 20.1
2017-Nov-20 13:00N 34°07' W 143°50'2 1.9 20.1
2017-Nov-20 12:00N 34°05' W 143°50'0 0.0 20.1
2017-Nov-20 08:00N 34°05' W 143°50'0 0.0 20.1
2017-Nov-20 07:00N 34°05' W 143°50'0 0.5 20.1
2017-Nov-20 06:00N 34°05' W 143°49'0 0.5 20.1
2017-Nov-20 05:00N 34°05' W 143°49'0 0.5 20.1
2017-Nov-20 04:00N 34°05' W 143°49'1 0.8 20.1
2017-Nov-20 03:00N 34°05' W 143°49'0 0.5 20.1
2017-Nov-20 02:00N 34°05' W 143°49'0 0.0 20.1
2017-Nov-20 01:00N 34°05' W 143°49'0 0.0 20.1
2017-Nov-20 00:00N 34°05' W 143°49'0 0.0 20.1
2017-Nov-19 23:00N 34°05' W 143°49'2 0.6 20.1
2017-Nov-19 20:00N 34°03' W 143°49'1 1.2 20.1
2017-Nov-19 19:00N 34°02' W 143°48'1 0.6 20.1
2017-Nov-19 18:00N 34°02' W 143°48'1 0.6 20.1
2017-Nov-19 17:00N 34°01' W 143°48'1 0.8 20.1
2017-Nov-19 16:00N 34°01' W 143°47'0 0.0 20.0
2017-Nov-19 15:00N 34°01' W 143°47'1 0.8 20.0
2017-Nov-19 14:00N 34°00' W 143°47'0 0.5 20.0
2017-Nov-19 13:00N 34°00' W 143°47'1 1.3 20.0
2017-Nov-19 12:00N 33°59' W 143°47'0 0.0 20.0
2017-Nov-19 07:00N 33°59' W 143°47'0 0.5 20.0
2017-Nov-19 06:00N 33°59' W 143°46'0 0.0 20.0
2017-Nov-19 05:00N 33°59' W 143°46'1 0.8 20.0
2017-Nov-19 04:00N 33°58' W 143°46'0 0.0 20.0
2017-Nov-19 03:00N 33°58' W 143°46'0 0.0 20.0
2017-Nov-19 02:00N 33°58' W 143°46'1 0.8 20.0
2017-Nov-19 01:00N 33°58' W 143°46'0 0.0 20.1
2017-Nov-19 00:00N 33°58' W 143°46'0 0.0 20.1
2017-Nov-18 23:00N 33°58' W 143°46'4 1.4 20.0
2017-Nov-18 20:00N 33°53' W 143°47'2 0.8 20.0
2017-Nov-18 18:00N 33°52' W 143°46'1 0.6 20.0
2017-Nov-18 17:00N 33°52' W 143°46'1 1.5 20.1
2017-Nov-18 16:00N 33°52' W 143°44'1 1.3 20.1
2017-Nov-18 15:00N 33°50' W 143°44'0 0.5 20.1
2017-Nov-18 14:00N 33°50' W 143°44'1 0.8 20.2
2017-Nov-18 13:00N 33°50' W 143°43'3 2.8 20.2
2017-Nov-18 12:00N 33°47' W 143°41'0 0.0 20.2
2017-Nov-18 08:00N 33°47' W 143°41'0 0.5 20.2
2017-Nov-18 07:00N 33°47' W 143°41'0 0.5 20.2
2017-Nov-18 06:00N 33°47' W 143°41'0 0.0 20.2
2017-Nov-18 05:00N 33°47' W 143°41'1 0.8 20.2
2017-Nov-18 04:00N 33°47' W 143°42'1 0.6 20.2
2017-Nov-18 03:00N 33°46' W 143°42'1 0.8 20.2
2017-Nov-18 02:00N 33°46' W 143°43'1 1.3 20.2
2017-Nov-18 01:00N 33°44' W 143°43'0 0.0 20.3
2017-Nov-18 00:00N 33°44' W 143°43'2 2.5 20.3
2017-Nov-17 23:00N 33°42' W 143°43'0 0.0 20.2
2017-Nov-17 20:00N 33°42' W 143°43'1 1.2 20.2
2017-Nov-17 19:00N 33°41' W 143°41'0 0.5 20.2
2017-Nov-17 18:00N 33°41' W 143°41'1 0.6 20.1
2017-Nov-17 17:00N 33°41' W 143°41'0 0.0 20.1
2017-Nov-17 16:00N 33°41' W 143°41'0 0.0 20.1
2017-Nov-17 15:00N 33°41' W 143°41'1 0.6 20.1
2017-Nov-17 14:00N 33°40' W 143°41'1 1.3 20.1
2017-Nov-17 13:00N 33°39' W 143°41'0 0.0 20.1
2017-Nov-17 12:00N 33°39' W 143°41'0 0.1 20.1
2017-Nov-17 07:00N 33°39' W 143°41'0 0.5 20.1
2017-Nov-17 06:00N 33°39' W 143°41'0 0.0 20.2
2017-Nov-17 05:00N 33°39' W 143°41'1 0.6 20.2
2017-Nov-17 04:00N 33°40' W 143°41'1 0.6 20.2
2017-Nov-17 02:00N 33°39' W 143°43'2 0.8 20.2
2017-Nov-17 00:00N 33°40' W 143°41'0 0.2 20.2
2017-Nov-16 21:00N 33°40' W 143°40'1 0.4 20.2
2017-Nov-16 19:00N 33°40' W 143°40'0 0.0 20.2
2017-Nov-16 18:00N 33°40' W 143°40'1 1.3 20.2
2017-Nov-16 17:00N 33°41' W 143°39'0 0.5 20.2
2017-Nov-16 16:00N 33°41' W 143°38'1 0.8 20.2
2017-Nov-16 15:00N 33°42' W 143°39'1 0.8 20.2
2017-Nov-16 14:00N 33°43' W 143°38'2 1.6 20.2
2017-Nov-16 13:00N 33°44' W 143°40'1 1.3 20.2
2017-Nov-16 12:00N 33°43' W 143°39'2 0.4 20.3
2017-Nov-16 07:00N 33°44' W 143°39'1 0.8 20.2
2017-Nov-16 06:00N 33°45' W 143°38'1 0.8 20.2
2017-Nov-16 05:00N 33°46' W 143°38'0 0.0 20.2
2017-Nov-16 04:00N 33°46' W 143°38'1 0.8 20.2
2017-Nov-16 03:00N 33°45' W 143°37'0 0.0 20.2
2017-Nov-16 02:00N 33°45' W 143°37'2 1.6 20.2
2017-Nov-16 01:00N 33°46' W 143°36'1 1.0 20.2
2017-Nov-16 00:00N 33°46' W 143°35'0 0.0 20.2
2017-Nov-15 23:00N 33°46' W 143°35'0 0.0 20.1
2017-Nov-15 22:00N 33°46' W 143°35'4 1.4 20.1
2017-Nov-15 19:00N 33°50' W 143°32'1 1.3 20.2
2017-Nov-15 18:00N 33°51' W 143°32'0 0.0 20.2
2017-Nov-15 17:00N 33°51' W 143°32'0 0.0 20.2
2017-Nov-15 16:00N 33°51' W 143°32'1 1.3 20.2
2017-Nov-15 15:00N 33°52' W 143°31'1 0.6 20.2
2017-Nov-15 13:00N 33°53' W 143°32'1 0.2 20.3
2017-Nov-15 07:00N 33°54' W 143°32'0 0.5 20.2
2017-Nov-15 06:00N 33°54' W 143°31'1 0.6 20.2
2017-Nov-15 05:00N 33°55' W 143°31'0 0.5 20.2
2017-Nov-15 04:00N 33°55' W 143°31'1 1.2 20.2
2017-Nov-15 03:00N 33°54' W 143°29'0 0.0 20.2
2017-Nov-15 02:00N 33°54' W 143°29'1 1.2 20.3
2017-Nov-15 01:00N 33°55' W 143°28'2 1.6 20.3
2017-Nov-15 00:00N 33°56' W 143°27'0 0.0 20.3
2017-Nov-14 23:00N 33°56' W 143°27'0 0.0 20.3
2017-Nov-14 22:00N 33°56' W 143°27'4 1.9 20.3
2017-Nov-14 20:00N 33°58' W 143°23'2 1.2 20.3
2017-Nov-14 18:00N 34°01' W 143°23'0 0.0 20.4
2017-Nov-14 17:00N 34°01' W 143°23'0 0.0 20.4
2017-Nov-14 16:00N 34°01' W 143°23'2 0.8 20.4
2017-Nov-14 14:00N 34°01' W 143°21'0 0.5 20.4
2017-Nov-14 13:00N 34°01' W 143°20'0 0.0 20.4
2017-Nov-14 12:00N 34°01' W 143°20'0 0.0 20.4
2017-Nov-14 11:00N 34°01' W 143°20'1 0.2 20.4
2017-Nov-14 07:00N 34°01' W 143°19'1 1.2 20.4
2017-Nov-14 06:00N 34°02' W 143°18'2 1.6 20.4
2017-Nov-14 05:00N 34°01' W 143°16'1 0.6 20.4
2017-Nov-14 04:00N 34°02' W 143°16'1 1.0 20.4
2017-Nov-14 03:00N 34°02' W 143°15'1 1.2 20.4
2017-Nov-14 02:00N 34°02' W 143°14'0 0.0 20.5
2017-Nov-14 01:00N 34°02' W 143°14'2 1.6 20.5
2017-Nov-14 00:00N 34°04' W 143°13'0 0.0 20.5
2017-Nov-13 23:00N 34°04' W 143°13'0 0.0 20.5
2017-Nov-13 22:00N 34°04' W 143°13'2 1.0 20.6
2017-Nov-13 20:00N 34°05' W 143°11'0 0.0 20.5
2017-Nov-13 18:00N 34°05' W 143°11'0 0.0 20.5
2017-Nov-13 17:00N 34°05' W 143°11'1 0.6 20.5
2017-Nov-13 16:00N 34°06' W 143°11'   20.5

Dump ship's entire track history